TAF and METAR

Decoding for American and Canadian METARs and TAFs is not fully implemented.

Could not understand the following METAR

CWEU 141500Z 11008KT 8SM -SN BKN042 M29/M32 A2985 RMK SC5 SLP113
No TAF available for Eureka
Eureka in Canada at 10m

Latest 5 airports